Time;durP1;ratioP1;P1;durP2;ratioP2;P2;SDS_P1;SDS_P2;PMS_P1;PMS_P2;Temp;Humidity;BMP_temperature;BMP_pressure;BME280_temperature;BME280_humidity;BME280_pressure;Samples;Min_cycle;Max_cycle;Signal;HPM_P1;HPM_P2
2022/09/04 00:02:20;;;;;;;3.80;1.70;;;19.00;99.90;;;;;;1900637;75;21055;-79
2022/09/04 00:05:15;;;;;;;2.67;1.62;;;19.00;99.90;;;;;;1898782;75;21113;-79
2022/09/04 00:08:23;;;;;;;2.65;1.57;;;19.10;99.90;;;;;;1891740;75;21102;-79
2022/09/04 00:11:20;;;;;;;3.65;2.08;;;19.10;99.90;;;;;;1911729;75;21067;-78
2022/09/04 00:14:15;;;;;;;4.17;1.62;;;19.10;99.90;;;;;;1906896;75;21186;-76
2022/09/04 00:17:10;;;;;;;2.55;1.70;;;19.10;99.90;;;;;;1903976;75;21569;-77
2022/09/04 00:20:04;;;;;;;3.90;2.42;;;19.10;99.90;;;;;;1899250;75;21059;-77
2022/09/04 00:22:59;;;;;;;3.62;2.08;;;19.10;99.90;;;;;;1895364;75;21050;-77
2022/09/04 00:25:56;;;;;;;3.10;1.92;;;19.10;99.90;;;;;;1895363;75;21200;-78
2022/09/04 00:28:50;;;;;;;3.00;2.02;;;19.10;99.90;;;;;;1895624;75;21174;-77
2022/09/04 00:31:46;;;;;;;4.40;1.57;;;19.10;99.90;;;;;;1899342;75;21546;-76
2022/09/04 00:35:03;;;;;;;5.90;3.17;;;19.00;99.90;;;;;;1898828;75;21051;-77
2022/09/04 00:37:58;;;;;;;3.67;1.62;;;18.90;99.90;;;;;;1899326;75;21090;-77
2022/09/04 00:40:52;;;;;;;4.35;3.40;;;18.90;99.90;;;;;;1895480;75;21129;-76
2022/09/04 00:44:10;;;;;;;3.72;2.00;;;18.90;99.90;;;;;;1889934;75;21063;-76
2022/09/04 00:47:38;;;;;;;10.10;6.63;;;18.90;99.90;;;;;;1891782;75;21141;-77
2022/09/04 00:50:46;;;;;;;4.72;1.98;;;18.90;99.90;;;;;;1895674;75;21385;-76
2022/09/04 00:53:47;;;;;;;;;;;18.80;99.90;;;;;;1898347;75;21052;-76
2022/09/04 01:00:13;;;;;;;2.52;1.70;;;18.90;99.90;;;;;;1946483;72;22224;-76
2022/09/04 01:03:25;;;;;;;3.05;2.12;;;18.90;99.90;;;;;;1906737;75;21149;-79
2022/09/04 01:06:28;;;;;;;4.33;2.30;;;18.90;99.90;;;;;;1906853;75;21734;-76
2022/09/04 01:12:40;;;;;;;3.30;1.77;;;18.80;99.90;;;;;;1944612;72;22219;-76
2022/09/04 01:15:36;;;;;;;2.22;1.60;;;18.80;99.90;;;;;;1892437;75;21150;-76
2022/09/04 01:18:31;;;;;;;3.10;1.70;;;18.90;99.90;;;;;;1895104;73;21115;-79
2022/09/04 01:21:34;;;;;;;3.35;1.87;;;18.90;99.90;;;;;;1883725;75;21055;-77
2022/09/04 01:24:58;;;;;;;2.02;1.47;;;18.90;99.90;;;;;;1883457;75;21686;-76
2022/09/04 01:27:54;;;;;;;3.60;1.87;;;18.90;99.90;;;;;;1876491;75;21056;-76
2022/09/04 01:30:48;;;;;;;3.62;2.00;;;18.90;99.90;;;;;;1899309;75;21589;-76
2022/09/04 01:33:43;;;;;;;3.00;1.77;;;18.80;99.90;;;;;;1894490;75;21150;-78
2022/09/04 01:36:38;;;;;;;3.15;2.22;;;18.80;99.90;;;;;;1873099;76;21115;-77
2022/09/04 01:39:31;;;;;;;4.33;2.20;;;18.80;99.90;;;;;;1873191;76;21059;-76
2022/09/04 01:42:26;;;;;;;3.35;2.30;;;18.80;99.90;;;;;;1873175;76;21108;-76
2022/09/04 01:45:31;;;;;;;3.05;1.87;;;18.80;99.90;;;;;;1901916;75;21103;-76
2022/09/04 01:48:26;;;;;;;4.08;1.80;;;18.80;99.90;;;;;;1883707;75;21213;-77
2022/09/04 01:51:23;;;;;;;2.85;1.90;;;18.80;99.90;;;;;;1885641;75;21104;-77
2022/09/04 01:54:21;;;;;;;3.83;1.72;;;18.80;99.90;;;;;;1889440;75;21060;-76
2022/09/04 01:57:18;;;;;;;2.70;1.90;;;18.80;99.90;;;;;;1886034;75;21073;-76
2022/09/04 02:00:12;;;;;;;4.80;1.98;;;18.70;99.90;;;;;;1883475;75;21047;-77
2022/09/04 02:03:07;;;;;;;2.90;1.80;;;18.70;99.90;;;;;;1883940;75;21602;-80
2022/09/04 02:06:03;;;;;;;6.25;2.65;;;18.80;99.90;;;;;;1883971;75;21132;-78
2022/09/04 02:09:09;;;;;;;7.00;3.08;;;18.80;99.90;;;;;;1887543;75;21071;-78
2022/09/04 02:12:05;;;;;;;4.97;2.45;;;18.90;99.90;;;;;;1888689;74;21146;-77
2022/09/04 02:15:02;;;;;;;3.92;2.20;;;18.80;99.90;;;;;;1874439;76;21055;-76
2022/09/04 02:17:56;;;;;;;4.53;2.50;;;18.90;99.90;;;;;;1897056;75;21104;-76
2022/09/04 02:20:53;;;;;;;3.00;2.70;;;18.90;99.90;;;;;;1880631;75;21079;-77
2022/09/04 02:23:48;;;;;;;4.67;2.30;;;18.90;99.90;;;;;;1885256;75;21095;-77
2022/09/04 02:26:42;;;;;;;3.05;2.10;;;18.90;99.90;;;;;;1890964;75;21130;-77
2022/09/04 02:29:38;;;;;;;5.53;2.75;;;18.80;99.90;;;;;;1883918;75;21077;-77
2022/09/04 02:32:36;;;;;;;4.22;1.87;;;18.80;99.90;;;;;;1886456;75;21137;-77
2022/09/04 02:35:32;;;;;;;3.30;1.55;;;18.70;99.90;;;;;;1886045;75;21123;-77
2022/09/04 02:38:28;;;;;;;2.58;1.57;;;18.70;99.90;;;;;;1882368;75;21645;-78
2022/09/04 02:41:22;;;;;;;4.12;1.77;;;18.70;99.90;;;;;;1908311;75;21060;-77
2022/09/04 02:44:24;;;;;;;3.50;2.30;;;18.70;99.90;;;;;;1887980;75;21139;-77
2022/09/04 02:47:20;;;;;;;2.50;2.25;;;18.70;99.90;;;;;;1897697;75;21110;-77
2022/09/04 02:50:15;;;;;;;3.45;2.20;;;18.60;99.90;;;;;;1881124;75;21138;-77
2022/09/04 02:53:19;;;;;;;2.55;1.72;;;18.60;99.90;;;;;;1882759;75;21461;-79
2022/09/04 02:56:21;;;;;;;2.27;2.08;;;18.60;99.90;;;;;;1895987;75;21075;-79
2022/09/04 02:59:26;;;;;;;2.00;1.77;;;18.60;99.90;;;;;;1889831;75;21609;-79
2022/09/04 03:02:21;;;;;;;4.08;2.83;;;18.60;99.90;;;;;;1886747;75;21043;-78
2022/09/04 03:05:19;;;;;;;4.00;2.55;;;18.60;99.90;;;;;;1886231;75;21107;-78
2022/09/04 03:08:14;;;;;;;4.08;2.60;;;18.60;99.90;;;;;;1874442;75;21122;-77
2022/09/04 03:11:10;;;;;;;3.30;2.30;;;18.60;99.90;;;;;;1889682;75;21056;-78
2022/09/04 03:14:04;;;;;;;2.77;1.90;;;18.60;99.90;;;;;;1880466;75;21083;-78
2022/09/04 03:16:59;;;;;;;5.45;1.90;;;18.50;99.90;;;;;;1893480;75;21188;-78
2022/09/04 03:19:54;;;;;;;2.80;1.77;;;18.50;99.90;;;;;;1886560;75;21168;-78
2022/09/04 03:22:50;;;;;;;2.55;1.40;;;18.50;99.90;;;;;;1880056;75;21177;-77
2022/09/04 03:26:10;;;;;;;5.58;1.50;;;18.50;99.90;;;;;;1897486;75;21060;-78
2022/09/04 03:29:07;;;;;;;1.90;1.25;;;18.60;99.90;;;;;;1898826;75;21152;-78
2022/09/04 03:32:06;;;;;;;2.67;1.40;;;18.60;99.90;;;;;;1899919;75;21126;-77
2022/09/04 03:37:59;;;;;;;3.62;1.90;;;18.50;99.90;;;;;;1963989;72;22233;-77
2022/09/04 03:40:55;;;;;;;2.02;1.52;;;18.40;99.90;;;;;;1940212;73;21095;-77
2022/09/04 03:43:57;;;;;;;6.10;1.72;;;18.40;99.90;;;;;;1917761;75;21494;-77
2022/09/04 03:46:55;;;;;;;3.20;1.65;;;18.40;99.90;;;;;;1917562;75;21058;-77
2022/09/04 03:49:48;;;;;;;;;;;18.30;99.90;;;;;;1920530;75;21103;-77
2022/09/04 03:52:45;;;;;;;4.15;1.67;;;18.40;99.90;;;;;;1935452;73;20456;-77
2022/09/04 03:55:52;;;;;;;4.10;1.45;;;18.30;99.90;;;;;;1917526;75;21175;-77
2022/09/04 03:58:46;;;;;;;4.40;1.87;;;18.30;99.90;;;;;;1929146;73;21349;-80
2022/09/04 04:01:53;;;;;;;3.55;2.25;;;18.30;99.90;;;;;;1922010;73;21058;-83
2022/09/04 04:04:59;;;;;;;2.58;1.77;;;18.30;99.90;;;;;;1917360;75;21541;-77
2022/09/04 04:07:57;;;;;;;3.08;1.77;;;18.20;99.90;;;;;;1917619;75;21118;-76
2022/09/04 04:10:54;;;;;;;3.50;1.60;;;18.30;99.90;;;;;;1917719;75;21159;-78
2022/09/04 04:14:09;;;;;;;2.45;1.65;;;18.30;99.90;;;;;;1936174;73;21652;-76
2022/09/04 04:17:08;;;;;;;2.15;1.57;;;18.40;99.90;;;;;;1936716;73;21227;-76
2022/09/04 04:20:13;;;;;;;7.42;2.30;;;18.40;99.90;;;;;;1933103;73;21148;-76
2022/09/04 04:23:21;;;;;;;6.80;1.92;;;18.30;99.90;;;;;;1917784;75;21117;-77
2022/09/04 04:26:19;;;;;;;5.50;2.17;;;18.20;99.90;;;;;;1917565;75;21098;-77
2022/09/04 04:29:42;;;;;;;3.52;1.75;;;18.20;99.90;;;;;;1940210;73;21135;-76
2022/09/04 04:32:58;;;;;;;5.45;1.92;;;18.10;99.90;;;;;;1940307;73;21058;-76
2022/09/04 04:35:54;;;;;;;3.65;2.17;;;18.20;99.90;;;;;;1927380;73;21169;-76
2022/09/04 04:38:55;;;;;;;3.22;2.10;;;18.20;99.90;;;;;;1923041;73;21094;-76
2022/09/04 04:42:07;;;;;;;3.62;2.00;;;18.20;99.90;;;;;;1935465;73;21057;-78
2022/09/04 04:49:04;;;;;;;3.27;1.82;;;18.20;99.90;;;;;;1940126;73;21047;-77
2022/09/04 04:52:10;;;;;;;4.35;2.08;;;18.20;99.90;;;;;;1915135;75;21063;-77
2022/09/04 04:55:20;;;;;;;3.10;2.12;;;18.20;99.90;;;;;;1917098;75;21191;-78
2022/09/04 04:58:22;;;;;;;3.27;2.35;;;18.20;99.90;;;;;;1921211;73;21103;-77
2022/09/04 05:01:20;;;;;;;7.58;2.22;;;18.10;99.90;;;;;;1926485;73;21172;-78
2022/09/04 05:04:16;;;;;;;4.95;2.30;;;18.20;99.90;;;;;;1917125;75;21616;-78
2022/09/04 05:07:13;;;;;;;3.75;2.42;;;18.20;99.90;;;;;;1916992;75;21059;-78
2022/09/04 05:10:11;;;;;;;6.08;2.22;;;18.30;99.90;;;;;;1917063;75;21118;-78
2022/09/04 05:13:10;;;;;;;3.02;2.25;;;18.30;99.90;;;;;;1916851;75;21098;-78
2022/09/04 05:16:06;;;;;;;4.47;2.50;;;18.30;99.90;;;;;;1916934;75;21619;-78
2022/09/04 05:19:02;;;;;;;3.83;2.25;;;18.30;99.90;;;;;;1917669;73;21199;-77
2022/09/04 05:21:58;;;;;;;4.03;2.85;;;18.40;99.90;;;;;;1925618;73;21098;-77
2022/09/04 05:24:56;;;;;;;4.30;3.08;;;18.40;99.90;;;;;;1916682;75;21143;-80
2022/09/04 05:27:54;;;;;;;3.80;2.75;;;18.40;99.90;;;;;;1921837;73;21125;-77
2022/09/04 05:30:49;;;;;;;3.58;2.42;;;18.50;99.90;;;;;;1926127;73;21159;-79
2022/09/04 05:33:44;;;;;;;2.25;1.80;;;18.60;99.90;;;;;;1916858;75;21097;-78
2022/09/04 05:36:42;;;;;;;4.90;2.02;;;18.50;99.90;;;;;;1916803;75;21050;-79
2022/09/04 05:39:34;;;;;;;;;;;18.60;99.90;;;;;;1919736;75;21122;-79
2022/09/04 05:42:44;;;;;;;3.10;1.70;;;18.50;99.90;;;;;;1923347;73;20169;-79
2022/09/04 05:45:43;;;;;;;3.52;1.65;;;18.40;99.90;;;;;;1918488;73;21031;-79
2022/09/04 05:48:39;;;;;;;4.85;1.60;;;18.50;99.90;;;;;;1916836;75;21096;-78
2022/09/04 05:51:47;;;;;;;3.87;1.80;;;18.40;99.90;;;;;;1879982;76;21070;-79
2022/09/04 05:55:11;;;;;;;2.40;2.00;;;18.40;99.90;;;;;;1935716;74;21082;-79
2022/09/04 06:00:48;;;;;;;6.70;2.90;;;18.30;99.90;;;;;;1942999;72;22209;-78
2022/09/04 06:04:09;;;;;;;4.05;2.95;;;18.30;99.90;;;;;;1917540;75;21095;-81
2022/09/04 06:07:07;;;;;;;3.77;2.50;;;18.40;99.90;;;;;;1917558;75;21512;-80
2022/09/04 06:10:03;;;;;;;3.62;2.75;;;18.40;99.90;;;;;;1917445;75;21647;-76
2022/09/04 06:13:50;;;;;;;6.17;2.90;;;18.40;99.90;;;;;;1917405;75;21128;-78
2022/09/04 06:16:48;;;;;;;4.20;2.70;;;18.40;99.90;;;;;;1862901;75;21259;-78
2022/09/04 06:19:48;;;;;;;3.85;2.60;;;18.40;99.90;;;;;;1928301;73;21051;-78
2022/09/04 06:23:03;;;;;;;4.42;2.83;;;18.40;99.90;;;;;;1920972;73;21228;-77
2022/09/04 06:26:10;;;;;;;8.00;3.40;;;18.50;99.90;;;;;;1940484;73;21086;-77
2022/09/04 06:29:11;;;;;;;4.12;3.45;;;18.50;99.90;;;;;;1922660;73;21096;-77
2022/09/04 06:32:43;;;;;;;7.22;2.70;;;18.60;99.90;;;;;;1917417;75;21110;-77
2022/09/04 06:35:57;;;;;;;4.47;2.98;;;18.60;99.90;;;;;;1917594;75;21071;-77
2022/09/04 06:38:56;;;;;;;5.10;2.65;;;18.70;99.90;;;;;;1923960;73;21650;-77
2022/09/04 06:42:00;;;;;;;3.87;2.42;;;18.80;99.90;;;;;;1925177;73;21185;-77
2022/09/04 06:44:58;;;;;;;4.22;2.55;;;18.90;99.90;;;;;;1922895;73;21062;-77
2022/09/04 06:48:03;;;;;;;2.60;2.20;;;18.90;99.90;;;;;;1931797;73;21095;-77
2022/09/04 06:53:45;;;;;;;2.87;1.90;;;18.80;99.90;;;;;;1942959;72;22185;-76
2022/09/04 06:56:49;;;;;;;2.40;2.05;;;18.90;99.90;;;;;;1911480;75;21107;-77
2022/09/04 06:59:54;;;;;;;4.67;2.83;;;19.00;99.90;;;;;;1895102;75;21136;-78
2022/09/04 07:06:11;;;;;;;4.87;2.58;;;19.10;99.90;;;;;;1956510;72;22179;-77
2022/09/04 07:09:07;;;;;;;5.37;2.30;;;19.20;99.90;;;;;;1902792;75;21078;-85
2022/09/04 07:12:26;;;;;;;3.10;2.50;;;19.30;99.90;;;;;;1898535;75;21087;-81
2022/09/04 07:16:08;;;;;;;3.62;2.85;;;19.30;99.90;;;;;;1916871;75;21107;-79
2022/09/04 07:19:13;;;;;;;3.00;2.60;;;19.40;99.90;;;;;;1901297;75;21213;-80
2022/09/04 07:22:21;;;;;;;4.28;2.50;;;19.40;99.90;;;;;;1917869;75;21043;-80
2022/09/04 07:25:17;;;;;;;5.03;2.80;;;19.40;99.90;;;;;;1902265;75;21134;-81
2022/09/04 07:28:14;;;;;;;2.77;2.25;;;19.50;99.90;;;;;;1897783;75;21102;-81
2022/09/04 07:31:09;;;;;;;2.90;2.17;;;19.60;99.90;;;;;;1885399;75;21158;-81
2022/09/04 07:34:05;;;;;;;3.17;2.00;;;19.60;99.90;;;;;;1885177;76;21062;-90
2022/09/04 07:37:01;;;;;;;4.90;2.12;;;19.70;99.90;;;;;;1884813;75;21052;-77
2022/09/04 07:39:57;;;;;;;4.53;2.27;;;19.80;99.90;;;;;;1883935;75;21096;-82
2022/09/04 07:42:52;;;;;;;4.40;2.00;;;19.80;99.90;;;;;;1884373;75;21110;-82
2022/09/04 07:45:50;;;;;;;3.00;2.08;;;19.80;99.90;;;;;;1895235;75;21054;-83
2022/09/04 07:48:43;;;;;;;3.72;2.40;;;19.90;99.90;;;;;;1888008;75;21062;-78
2022/09/04 07:51:37;;;;;;;5.17;2.40;;;19.90;99.90;;;;;;1906595;75;21140;-76
2022/09/04 07:54:42;;;;;;;2.67;2.20;;;19.90;99.90;;;;;;1904602;75;21580;-81
2022/09/04 07:57:45;;;;;;;5.15;2.40;;;20.00;99.90;;;;;;1884667;76;21643;-81
2022/09/04 08:00:42;;;;;;;3.60;2.33;;;20.00;99.90;;;;;;1899793;75;21088;-79
2022/09/04 08:03:44;;;;;;;4.22;2.77;;;20.10;99.90;;;;;;1917687;75;21059;-82
2022/09/04 08:06:40;;;;;;;2.92;2.58;;;20.20;99.90;;;;;;1906437;73;21186;-80
2022/09/04 08:09:40;;;;;;;3.22;2.70;;;20.30;99.90;;;;;;1944010;73;21111;-79
2022/09/04 08:12:48;;;;;;;4.67;3.45;;;20.30;99.90;;;;;;1905710;74;21074;-81
2022/09/04 08:15:45;;;;;;;6.20;4.12;;;20.30;99.90;;;;;;1911403;74;21131;-79
2022/09/04 08:21:46;;;;;;;4.08;3.17;;;20.40;99.90;;;;;;1954864;72;22119;-79
2022/09/04 08:24:52;;;;;;;4.42;2.77;;;20.50;99.90;;;;;;1895237;75;21044;-78
2022/09/04 08:28:08;;;;;;;4.95;2.20;;;20.60;99.90;;;;;;1894874;75;21110;-77
2022/09/04 08:31:06;;;;;;;4.45;2.45;;;20.70;99.90;;;;;;1897745;75;21154;-79
2022/09/04 08:34:22;;;;;;;4.72;2.12;;;20.80;99.90;;;;;;1906445;75;21058;-80
2022/09/04 08:37:18;;;;;;;2.98;1.80;;;21.00;99.90;;;;;;1903335;75;21131;-75
2022/09/04 08:41:05;;;;;;;3.60;1.98;;;21.00;99.90;;;;;;1903115;75;21179;-75
2022/09/04 08:47:43;;;;;;;138.57;118.08;;;21.20;99.90;;;;;;1958035;72;22095;-82
2022/09/04 08:51:07;;;;;;;4.87;2.95;;;21.30;99.90;;;;;;1883864;75;21213;-80
2022/09/04 08:54:12;;;;;;;3.17;1.90;;;21.40;99.90;;;;;;1885924;75;21086;-77
2022/09/04 08:57:17;;;;;;;2.42;1.62;;;21.50;99.90;;;;;;1884319;75;21158;-76
2022/09/04 09:00:11;;;;;;;3.70;1.92;;;21.50;99.90;;;;;;1884592;75;21067;-82
2022/09/04 09:03:28;;;;;;;3.65;1.98;;;21.60;99.90;;;;;;1894423;75;21121;-81
2022/09/04 09:06:44;;;;;;;2.22;1.70;;;21.70;99.90;;;;;;1894487;75;21093;-81
2022/09/04 09:10:08;;;;;;;2.62;1.52;;;21.80;99.90;;;;;;1887910;73;21588;-81
2022/09/04 09:13:29;;;;;;;3.45;1.90;;;21.90;99.90;;;;;;1906946;73;21112;-82
2022/09/04 09:16:26;;;;;;;4.20;2.30;;;22.00;99.90;;;;;;1897122;73;21253;-82
2022/09/04 09:19:38;;;;;;;3.98;2.20;;;21.90;99.90;;;;;;1894859;75;21094;-82
2022/09/04 09:22:48;;;;;;;4.00;1.65;;;21.90;99.90;;;;;;1894531;75;21125;-82
2022/09/04 09:25:42;;;;;;;2.87;2.20;;;22.00;99.90;;;;;;1921585;73;21097;-82
2022/09/04 09:29:00;;;;;;;3.72;1.77;;;22.10;99.90;;;;;;1879127;76;21140;-81
2022/09/04 09:32:27;;;;;;;2.20;1.30;;;22.20;99.90;;;;;;1894291;75;21055;-82
2022/09/04 09:36:01;;;;;;;3.90;2.40;;;22.30;99.90;;;;;;1883142;75;21172;-92
2022/09/04 09:39:13;;;;;;;3.17;1.57;;;22.40;99.90;;;;;;1901040;75;21546;-86
2022/09/04 09:46:08;;;;;;;1.87;1.20;;;22.50;99.90;;;;;;1955246;72;22122;-85
2022/09/04 09:52:03;;;;;;;3.17;1.92;;;22.60;99.90;;;;;;1947967;72;22284;-84
2022/09/04 09:58:31;;;;;;;3.08;1.40;;;22.70;99.90;;;;;;1952027;72;22178;-86
2022/09/04 10:01:56;;;;;;;1.45;1.30;;;22.90;99.90;;;;;;1907289;75;21498;-88
2022/09/04 10:05:29;;;;;;;3.58;1.80;;;23.00;99.90;;;;;;1914477;73;21081;-87
2022/09/04 10:08:33;;;;;;;2.98;1.72;;;23.10;99.90;;;;;;1896755;75;21148;-85
2022/09/04 10:15:44;;;;;;;2.55;1.25;;;23.40;99.90;;;;;;1965527;72;22264;-86
2022/09/04 10:22:11;;;;;;;2.90;1.50;;;23.60;99.90;;;;;;1976101;72;22594;-86
2022/09/04 10:25:42;;;;;;;2.05;1.50;;;23.60;99.90;;;;;;1952899;73;21153;-85
2022/09/04 10:29:19;;;;;;;2.83;1.50;;;23.70;99.90;;;;;;1937815;73;21086;-81
2022/09/04 10:32:30;;;;;;;3.07;1.40;;;23.90;99.90;;;;;;1940361;73;21110;-84
2022/09/04 10:35:28;;;;;;;3.33;1.27;;;23.90;99.90;;;;;;1925458;73;21215;-85
2022/09/04 10:40:34;;;;;;;1.32;1.10;;;23.90;99.90;;;;;;1919042;75;21073;-84
2022/09/04 10:41:44;;;;;;;1.95;1.20;;;24.00;99.90;;;;;;1927869;73;21171;-85
2022/09/04 10:45:01;;;;;;;2.02;1.40;;;24.10;99.90;;;;;;1926370;74;21158;-85
2022/09/04 10:48:48;;;;;;;1.40;1.30;;;24.20;99.90;;;;;;1917502;75;21150;-87
2022/09/04 10:52:06;;;;;;;1.45;1.15;;;24.40;99.90;;;;;;1917737;75;21059;-87
2022/09/04 10:55:30;;;;;;;1.77;1.20;;;24.50;99.90;;;;;;1921850;73;21115;-87
2022/09/04 10:58:28;;;;;;;1.62;1.30;;;24.40;99.90;;;;;;1924790;73;21088;-86
2022/09/04 11:01:44;;;;;;;1.50;1.17;;;24.50;99.90;;;;;;1924751;73;21138;-89
2022/09/04 11:05:05;;;;;;;1.50;1.32;;;24.50;99.90;;;;;;1922970;73;21061;-89
2022/09/04 11:08:23;;;;;;;2.08;1.40;;;24.70;99.90;;;;;;1926444;73;21178;-87
2022/09/04 11:11:24;;;;;;;1.37;1.10;;;24.90;99.90;;;;;;1917684;75;21096;-83
2022/09/04 11:14:48;;;;;;;1.98;1.20;;;24.90;99.90;;;;;;1917424;75;21087;-85
2022/09/04 11:18:22;;;;;;;1.85;1.30;;;25.00;99.90;;;;;;1940483;73;21067;-88
2022/09/04 11:21:46;;;;;;;1.17;1.07;;;25.10;99.90;;;;;;1907669;74;21126;-84
2022/09/04 11:25:13;;;;;;;2.00;1.30;;;25.10;99.90;;;;;;1903359;74;21144;-86
2022/09/04 11:28:35;;;;;;;326.73;290.65;;;25.10;99.90;;;;;;1767608;77;21161;-79
2022/09/04 11:31:33;;;;;;;3.50;2.42;;;25.10;99.90;;;;;;1916735;75;21047;-85
2022/09/04 11:35:06;;;;;;;3.05;1.40;;;25.30;99.90;;;;;;1929061;73;21051;-86
2022/09/04 11:38:10;;;;;;;1.95;1.20;;;25.30;99.90;;;;;;1916818;73;21106;-87
2022/09/04 11:41:46;;;;;;;2.12;1.27;;;25.40;99.90;;;;;;1951956;73;21051;-87
2022/09/04 11:45:21;;;;;;;2.30;1.15;;;25.40;99.90;;;;;;1917062;75;21141;-87
2022/09/04 11:48:43;;;;;;;2.65;1.30;;;25.40;99.90;;;;;;1916865;75;21105;-88
2022/09/04 11:52:16;;;;;;;2.75;1.40;;;25.50;99.90;;;;;;1916863;75;21058;-85
2022/09/04 11:55:37;;;;;;;1.40;1.20;;;25.60;99.90;;;;;;1917144;75;21098;-86
2022/09/04 11:58:53;;;;;;;2.42;1.40;;;25.70;99.90;;;;;;1912949;73;21063;-88
2022/09/04 12:02:27;;;;;;;2.85;1.20;;;25.90;99.90;;;;;;1864503;76;21635;-84
2022/09/04 12:08:06;;;;;;;10.40;8.55;;;26.00;99.90;;;;;;1950207;72;22672;-79
2022/09/04 12:11:12;;;;;;;5.08;3.52;;;26.10;99.90;;;;;;1888472;75;21101;-80
2022/09/04 12:14:18;;;;;;;1.20;1.10;;;26.20;99.90;;;;;;1917332;75;21064;-80
2022/09/04 12:17:46;;;;;;;3.65;1.87;;;26.30;99.90;;;;;;1897827;75;21175;-79
2022/09/04 12:21:00;;;;;;;1.80;1.20;;;26.30;99.90;;;;;;1885344;75;21104;-85
2022/09/04 12:24:17;;;;;;;2.52;1.37;;;26.40;99.90;;;;;;1885346;75;21118;-81
2022/09/04 12:30:28;;;;;;;3.15;1.37;;;26.60;99.90;;;;;;1952182;72;22154;-85
2022/09/04 12:33:38;;;;;;;3.42;1.45;;;26.50;99.90;;;;;;1884540;76;21380;-85
2022/09/04 12:36:59;;;;;;;3.83;1.20;;;26.60;99.90;;;;;;1884393;75;21176;-81
2022/09/04 12:40:08;;;;;;;1.37;1.20;;;26.60;99.90;;;;;;1849446;77;21139;-85
2022/09/04 12:43:15;;;;;;;6.75;1.47;;;26.80;99.90;;;;;;1902408;75;21131;-86
2022/09/04 12:46:13;;;;;;;1.32;1.20;;;26.90;99.90;;;;;;1884885;76;21135;-86
2022/09/04 12:49:15;;;;;;;2.25;1.40;;;27.10;99.90;;;;;;1897595;75;21631;-80
2022/09/04 12:52:10;;;;;;;3.40;1.22;;;26.90;99.90;;;;;;1891088;75;21141;-82
2022/09/04 12:55:08;;;;;;;1.27;1.12;;;26.90;99.90;;;;;;1906632;75;21114;-82
2022/09/04 12:58:10;;;;;;;3.10;1.22;;;26.90;99.90;;;;;;1906550;75;21047;-83
2022/09/04 13:01:09;;;;;;;2.33;1.20;;;26.90;99.90;;;;;;1887682;73;21066;-81
2022/09/04 13:04:07;;;;;;;1.02;0.90;;;27.00;99.90;;;;;;1901951;75;21110;-80
2022/09/04 13:07:07;;;;;;;2.27;1.10;;;27.20;99.90;;;;;;1898113;75;21131;-81
2022/09/04 13:10:05;;;;;;;1.85;1.45;;;27.40;99.90;;;;;;1891610;75;21258;-80
2022/09/04 13:13:03;;;;;;;2.52;1.02;;;27.40;99.90;;;;;;1893225;75;21102;-81
2022/09/04 13:16:00;;;;;;;1.82;1.15;;;27.60;99.90;;;;;;1895299;75;21188;-80
2022/09/04 13:18:59;;;;;;;1.17;1.00;;;27.70;99.90;;;;;;1895627;75;21444;-80
2022/09/04 13:22:08;;;;;;;1.92;1.25;;;27.90;99.90;;;;;;1932803;73;21103;-82
2022/09/04 13:25:05;;;;;;;1.62;1.00;;;28.10;99.90;;;;;;1928493;73;21094;-86
2022/09/04 13:28:03;;;;;;;3.10;1.17;;;28.20;99.90;;;;;;1897893;75;21124;-84
2022/09/04 13:30:58;;;;;;;4.72;1.27;;;28.30;99.90;;;;;;1894810;75;21079;-83
2022/09/04 13:33:55;;;;;;;1.52;1.37;;;28.40;99.90;;;;;;1899632;73;21615;-82
2022/09/04 13:36:56;;;;;;;1.85;0.90;;;28.70;99.90;;;;;;1907607;73;21149;-83
2022/09/04 13:39:59;;;;;;;1.30;0.93;;;28.70;99.90;;;;;;1873602;75;21068;-83
2022/09/04 13:43:16;;;;;;;2.15;1.15;;;28.60;99.90;;;;;;1889297;75;21085;-83
2022/09/04 13:46:11;;;;;;;1.87;0.85;;;28.70;99.90;;;;;;1885482;75;21048;-81
2022/09/04 13:49:06;;;;;;;1.32;0.90;;;28.70;99.90;;;;;;1911464;73;21166;-84
2022/09/04 13:52:02;;;;;;;1.75;1.00;;;29.00;99.90;;;;;;1912836;73;21059;-81
2022/09/04 13:54:57;;;;;;;1.12;1.00;;;29.20;99.90;;;;;;1890565;75;21130;-82
2022/09/04 13:57:56;;;;;;;4.47;1.10;;;29.40;99.90;;;;;;1892544;75;21167;-82
2022/09/04 14:00:48;;;;;;;2.42;1.10;;;29.50;99.90;;;;;;1892620;75;21108;-78
2022/09/04 14:03:43;;;;;;;1.67;1.02;;;29.60;99.90;;;;;;1886690;75;21051;-81
2022/09/04 14:06:37;;;;;;;1.35;1.02;;;29.50;99.90;;;;;;1906887;73;21062;-80
2022/09/04 14:09:30;;;;;;;2.33;1.15;;;30.00;99.90;;;;;;1930525;73;21146;-81
2022/09/04 14:12:49;;;;;;;2.15;1.05;;;30.80;99.90;;;;;;1884191;75;21098;-81
2022/09/04 14:15:50;;;;;;;4.30;1.32;;;32.10;99.90;;;;;;1893575;75;21119;-81
2022/09/04 14:19:08;;;;;;;2.22;1.05;;;32.40;99.90;;;;;;1904067;75;21120;-80
2022/09/04 14:22:09;;;;;;;3.15;1.30;;;32.90;99.90;;;;;;1901915;75;21542;-80
2022/09/04 14:25:06;;;;;;;2.27;0.98;;;33.00;99.90;;;;;;1887332;75;21577;-81
2022/09/04 14:28:04;;;;;;;1.67;0.98;;;33.00;99.50;;;;;;1896024;75;21098;-81
2022/09/04 14:31:04;;;;;;;1.52;1.10;;;33.60;98.10;;;;;;1906164;74;21155;-81
2022/09/04 14:34:04;;;;;;;3.12;1.10;;;33.10;98.20;;;;;;1921529;74;21135;-81
2022/09/04 14:36:59;;;;;;;1.32;0.90;;;32.40;98.20;;;;;;1903854;74;21106;-82
2022/09/04 14:39:54;;;;;;;1.90;1.00;;;32.40;98.60;;;;;;1906876;74;21168;-80
2022/09/04 14:42:49;;;;;;;1.35;1.17;;;33.60;94.90;;;;;;1908629;74;21142;-81
2022/09/04 14:46:05;;;;;;;2.27;1.02;;;33.90;93.20;;;;;;1893962;74;21140;-81
2022/09/04 14:49:04;;;;;;;1.98;1.07;;;33.80;92.60;;;;;;1905220;74;21116;-82
2022/09/04 14:51:57;;;;;;;2.00;1.10;;;34.30;91.60;;;;;;1904095;74;21133;-82
2022/09/04 14:54:56;;;;;;;2.80;1.17;;;35.00;91.00;;;;;;1904346;74;21110;-81
2022/09/04 14:57:54;;;;;;;1.65;1.00;;;34.20;90.40;;;;;;1904636;74;21152;-77
2022/09/04 15:01:00;;;;;;;1.52;0.90;;;34.80;88.70;;;;;;1911328;74;21060;-78
2022/09/04 15:03:55;;;;;;;1.20;0.95;;;35.50;87.40;;;;;;1909657;74;21223;-77
2022/09/04 15:06:50;;;;;;;1.75;1.00;;;35.80;83.50;;;;;;1904990;74;21117;-77
2022/09/04 15:09:46;;;;;;;2.58;1.15;;;35.90;83.00;;;;;;1903708;74;21063;-78
2022/09/04 15:12:41;;;;;;;2.40;1.00;;;36.30;81.40;;;;;;1904032;74;21171;-79
2022/09/04 15:15:35;;;;;;;1.80;0.93;;;36.00;80.50;;;;;;1905312;74;21055;-79
2022/09/04 15:21:18;;;;;;;2.15;1.17;;;34.70;82.00;;;;;;1942161;72;22173;-90
2022/09/04 15:24:16;;;;;;;1.50;0.98;;;35.10;81.00;;;;;;1917157;75;21188;-80
2022/09/04 15:27:15;;;;;;;1.52;1.00;;;36.00;79.70;;;;;;1917493;75;21587;-85
2022/09/04 15:30:13;;;;;;;2.47;1.02;;;36.70;78.40;;;;;;1917133;75;21139;-82
2022/09/04 15:33:07;;;;;;;1.65;1.20;;;37.20;76.70;;;;;;1917578;75;21052;-83
2022/09/04 15:36:06;;;;;;;2.55;1.20;;;36.90;74.80;;;;;;1917242;75;21159;-94
2022/09/04 15:39:00;;;;;;;1.98;0.93;;;37.00;75.10;;;;;;1926178;73;21562;-85
2022/09/04 15:41:52;;;;;;;2.20;1.27;;;37.30;72.90;;;;;;1946872;73;21151;-78
2022/09/04 15:44:47;;;;;;;3.08;1.00;;;37.00;73.00;;;;;;1917658;75;21094;-79
2022/09/04 15:48:10;;;;;;;2.00;1.20;;;37.70;72.70;;;;;;1917702;75;21062;-84
2022/09/04 15:51:18;;;;;;;2.33;1.20;;;37.50;70.80;;;;;;1917522;75;21561;-87
2022/09/04 15:54:33;;;;;;;2.60;1.15;;;37.70;71.50;;;;;;1932384;73;21182;-88
2022/09/04 15:57:31;;;;;;;1.20;1.10;;;38.90;69.70;;;;;;1918284;75;21060;-93
2022/09/04 16:00:26;;;;;;;2.00;1.70;;;38.60;68.40;;;;;;1917813;73;21054;-86
2022/09/04 16:03:20;;;;;;;2.10;1.50;;;39.50;66.70;;;;;;1886610;75;21613;-85
2022/09/04 16:06:18;;;;;;;2.80;1.27;;;39.90;66.20;;;;;;1926515;73;21565;-84
2022/09/04 16:09:12;;;;;;;1.77;0.90;;;40.20;61.90;;;;;;1917041;75;21087;-85
2022/09/04 16:12:09;;;;;;;1.85;1.40;;;39.10;60.60;;;;;;1934324;73;21196;-85
2022/09/04 16:15:04;;;;;;;1.25;0.90;;;38.30;61.90;;;;;;1917431;75;21055;-84
2022/09/04 16:17:56;;;;;;;1.82;1.10;;;37.70;62.20;;;;;;1917137;75;21149;-85
2022/09/04 16:20:50;;;;;;;0.95;0.93;;;37.40;62.80;;;;;;1922254;73;21117;-85
2022/09/04 16:23:42;;;;;;;0.93;0.90;;;37.20;63.30;;;;;;1871060;76;21110;-85
2022/09/04 16:26:35;;;;;;;2.45;1.10;;;36.70;63.70;;;;;;1892261;75;21626;-84
2022/09/04 16:29:35;;;;;;;1.32;1.20;;;37.00;64.70;;;;;;1924175;74;21115;-85
2022/09/04 16:32:30;;;;;;;2.22;0.90;;;38.60;64.50;;;;;;1907781;74;21843;-81
2022/09/04 16:35:23;;;;;;;95.32;86.50;;;39.60;60.40;;;;;;1918053;74;21091;-82
2022/09/04 16:38:17;;;;;;;4.03;3.33;;;38.60;61.70;;;;;;1916204;74;21059;-83
2022/09/04 16:41:13;;;;;;;2.80;2.12;;;39.30;62.30;;;;;;1906985;73;21700;-81
2022/09/04 16:44:12;;;;;;;2.70;1.70;;;39.20;62.90;;;;;;1909705;74;21137;-81
2022/09/04 16:47:09;;;;;;;2.98;2.08;;;38.90;62.70;;;;;;1904686;74;21069;-84
2022/09/04 16:50:04;;;;;;;3.40;1.82;;;37.60;63.90;;;;;;1917792;74;21110;-84
2022/09/04 16:53:16;;;;;;;3.80;1.67;;;36.50;68.50;;;;;;1901818;75;21677;-82